Rimini, South Carolina
Current Conditions -  °F | °C
As of 7:58 AM on Thursday 27 Nov 2014 (Local Time) from KSSC Reporting Station
Clear Clear  
Wind Chill: 36°   Ceiling: Unl
Heat Index: 43°   Visibility: 10mi
Dew Point: 32°   Wind: 13mph
Humidity: 66%   Direction: 250°WSW
Pressure: 30.05"   Gusts: NA
Location:  33.7445°N, 80.5249°W
Report Text: KSSC 271258Z AUTO 25011KT 10SM CLR 06/00 A3005 RMK AO2 SLP178 T00601000 $
Loading
Personal Weather Stations






























Interactive Weather Map New forecast layout! Learn more

10-Day Weather Forecast

Advertisements
Track Severe Weather on mobile